sensor_id;sensor_type;location;lat;lon;timestamp;P1;durP1;ratioP1;P2;durP2;ratioP2
7503;SDS011;3793;48.136;11.536;2023-05-19T00:03:39;8.40;;;4.33;;
7503;SDS011;3793;48.136;11.536;2023-05-19T00:06:53;7.97;;;4.60;;
7503;SDS011;3793;48.136;11.536;2023-05-19T00:11:01;14.10;;;4.77;;
7503;SDS011;3793;48.136;11.536;2023-05-19T00:13:34;11.10;;;4.30;;
7503;SDS011;3793;48.136;11.536;2023-05-19T00:20:01;14.77;;;5.23;;
7503;SDS011;3793;48.136;11.536;2023-05-19T00:23:11;11.63;;;4.60;;
7503;SDS011;3793;48.136;11.536;2023-05-19T00:26:24;8.60;;;4.77;;
7503;SDS011;3793;48.136;11.536;2023-05-19T00:32:10;11.37;;;4.87;;
7503;SDS011;3793;48.136;11.536;2023-05-19T00:36:26;10.10;;;5.17;;
7503;SDS011;3793;48.136;11.536;2023-05-19T00:42:37;9.83;;;4.87;;
7503;SDS011;3793;48.136;11.536;2023-05-19T00:45:26;13.00;;;5.10;;
7503;SDS011;3793;48.136;11.536;2023-05-19T00:48:01;10.37;;;5.00;;
7503;SDS011;3793;48.136;11.536;2023-05-19T00:50:30;11.70;;;4.83;;
7503;SDS011;3793;48.136;11.536;2023-05-19T00:53:05;10.10;;;5.57;;
7503;SDS011;3793;48.136;11.536;2023-05-19T00:55:40;11.13;;;4.77;;
7503;SDS011;3793;48.136;11.536;2023-05-19T00:58:22;13.97;;;5.20;;
7503;SDS011;3793;48.136;11.536;2023-05-19T01:04:22;13.97;;;5.43;;
7503;SDS011;3793;48.136;11.536;2023-05-19T01:07:00;9.57;;;4.83;;
7503;SDS011;3793;48.136;11.536;2023-05-19T01:09:29;10.97;;;5.63;;
7503;SDS011;3793;48.136;11.536;2023-05-19T01:12:05;11.73;;;4.60;;
7503;SDS011;3793;48.136;11.536;2023-05-19T01:15:23;14.20;;;5.00;;
7503;SDS011;3793;48.136;11.536;2023-05-19T01:21:34;11.00;;;5.33;;
7503;SDS011;3793;48.136;11.536;2023-05-19T01:24:44;11.03;;;5.20;;
7503;SDS011;3793;48.136;11.536;2023-05-19T01:28:14;9.77;;;4.70;;
7503;SDS011;3793;48.136;11.536;2023-05-19T01:31:24;11.00;;;4.63;;
7503;SDS011;3793;48.136;11.536;2023-05-19T01:38:02;12.17;;;4.53;;
7503;SDS011;3793;48.136;11.536;2023-05-19T01:41:39;10.57;;;4.53;;
7503;SDS011;3793;48.136;11.536;2023-05-19T01:44:30;10.90;;;5.43;;
7503;SDS011;3793;48.136;11.536;2023-05-19T01:47:35;10.03;;;4.47;;
7503;SDS011;3793;48.136;11.536;2023-05-19T01:50:24;11.13;;;4.67;;
7503;SDS011;3793;48.136;11.536;2023-05-19T01:53:16;17.10;;;5.80;;
7503;SDS011;3793;48.136;11.536;2023-05-19T01:55:45;10.67;;;4.90;;
7503;SDS011;3793;48.136;11.536;2023-05-19T01:58:30;11.60;;;5.47;;
7503;SDS011;3793;48.136;11.536;2023-05-19T02:08:16;10.00;;;5.00;;
7503;SDS011;3793;48.136;11.536;2023-05-19T02:10:51;11.80;;;5.37;;
7503;SDS011;3793;48.136;11.536;2023-05-19T02:13:52;13.63;;;5.80;;
7503;SDS011;3793;48.136;11.536;2023-05-19T02:16:48;11.00;;;5.30;;
7503;SDS011;3793;48.136;11.536;2023-05-19T02:19:47;10.10;;;5.00;;
7503;SDS011;3793;48.136;11.536;2023-05-19T02:22:43;12.00;;;5.43;;
7503;SDS011;3793;48.136;11.536;2023-05-19T02:25:22;10.20;;;5.27;;
7503;SDS011;3793;48.136;11.536;2023-05-19T02:27:53;10.57;;;4.93;;
7503;SDS011;3793;48.136;11.536;2023-05-19T02:30:22;10.33;;;5.60;;
7503;SDS011;3793;48.136;11.536;2023-05-19T02:32:50;12.37;;;5.90;;
7503;SDS011;3793;48.136;11.536;2023-05-19T02:35:25;9.50;;;5.40;;
7503;SDS011;3793;48.136;11.536;2023-05-19T02:38:17;15.47;;;6.03;;
7503;SDS011;3793;48.136;11.536;2023-05-19T02:40:52;11.63;;;5.50;;
7503;SDS011;3793;48.136;11.536;2023-05-19T02:43:27;9.40;;;5.80;;
7503;SDS011;3793;48.136;11.536;2023-05-19T02:49:14;10.43;;;5.77;;
7503;SDS011;3793;48.136;11.536;2023-05-19T02:51:56;8.87;;;4.80;;
7503;SDS011;3793;48.136;11.536;2023-05-19T02:54:33;8.60;;;5.10;;
7503;SDS011;3793;48.136;11.536;2023-05-19T03:04:03;10.43;;;5.33;;
7503;SDS011;3793;48.136;11.536;2023-05-19T03:06:39;10.53;;;5.17;;
7503;SDS011;3793;48.136;11.536;2023-05-19T03:09:19;10.77;;;5.30;;
7503;SDS011;3793;48.136;11.536;2023-05-19T03:12:15;11.23;;;5.23;;
7503;SDS011;3793;48.136;11.536;2023-05-19T03:14:51;8.83;;;5.43;;
7503;SDS011;3793;48.136;11.536;2023-05-19T03:17:18;10.73;;;4.93;;
7503;SDS011;3793;48.136;11.536;2023-05-19T03:20:01;11.90;;;5.63;;
7503;SDS011;3793;48.136;11.536;2023-05-19T03:22:32;13.27;;;5.63;;
7503;SDS011;3793;48.136;11.536;2023-05-19T03:25:02;11.20;;;4.97;;
7503;SDS011;3793;48.136;11.536;2023-05-19T03:27:35;14.73;;;5.80;;
7503;SDS011;3793;48.136;11.536;2023-05-19T03:30:12;12.17;;;5.00;;
7503;SDS011;3793;48.136;11.536;2023-05-19T03:32:40;8.60;;;4.77;;
7503;SDS011;3793;48.136;11.536;2023-05-19T03:38:52;13.67;;;6.20;;
7503;SDS011;3793;48.136;11.536;2023-05-19T03:41:43;9.73;;;5.23;;
7503;SDS011;3793;48.136;11.536;2023-05-19T03:44:15;16.40;;;5.33;;
7503;SDS011;3793;48.136;11.536;2023-05-19T03:46:43;13.73;;;4.90;;
7503;SDS011;3793;48.136;11.536;2023-05-19T03:49:12;11.17;;;4.87;;
7503;SDS011;3793;48.136;11.536;2023-05-19T03:51:53;8.20;;;4.87;;
7503;SDS011;3793;48.136;11.536;2023-05-19T03:54:20;12.00;;;5.43;;
7503;SDS011;3793;48.136;11.536;2023-05-19T03:56:53;10.27;;;5.03;;
7503;SDS011;3793;48.136;11.536;2023-05-19T03:59:44;10.73;;;5.10;;
7503;SDS011;3793;48.136;11.536;2023-05-19T04:03:06;13.13;;;5.60;;
7503;SDS011;3793;48.136;11.536;2023-05-19T04:05:38;10.33;;;5.00;;
7503;SDS011;3793;48.136;11.536;2023-05-19T04:08:13;10.57;;;5.53;;
7503;SDS011;3793;48.136;11.536;2023-05-19T04:10:40;12.97;;;5.37;;
7503;SDS011;3793;48.136;11.536;2023-05-19T04:13:37;11.13;;;5.40;;
7503;SDS011;3793;48.136;11.536;2023-05-19T04:19:07;16.57;;;5.57;;
7503;SDS011;3793;48.136;11.536;2023-05-19T04:21:39;13.20;;;5.43;;
7503;SDS011;3793;48.136;11.536;2023-05-19T04:24:14;13.50;;;6.00;;
7503;SDS011;3793;48.136;11.536;2023-05-19T04:26:44;13.07;;;5.60;;
7503;SDS011;3793;48.136;11.536;2023-05-19T04:29:13;9.57;;;5.10;;
7503;SDS011;3793;48.136;11.536;2023-05-19T04:31:47;15.47;;;5.60;;
7503;SDS011;3793;48.136;11.536;2023-05-19T04:34:16;11.27;;;5.33;;
7503;SDS011;3793;48.136;11.536;2023-05-19T04:37:01;13.13;;;5.97;;
7503;SDS011;3793;48.136;11.536;2023-05-19T04:42:39;15.10;;;5.70;;
7503;SDS011;3793;48.136;11.536;2023-05-19T04:45:10;9.33;;;5.80;;
7503;SDS011;3793;48.136;11.536;2023-05-19T04:47:38;13.00;;;5.30;;
7503;SDS011;3793;48.136;11.536;2023-05-19T04:50:06;9.83;;;5.40;;
7503;SDS011;3793;48.136;11.536;2023-05-19T04:52:40;11.50;;;5.73;;
7503;SDS011;3793;48.136;11.536;2023-05-19T04:55:12;10.40;;;5.20;;
7503;SDS011;3793;48.136;11.536;2023-05-19T04:57:46;8.60;;;5.17;;
7503;SDS011;3793;48.136;11.536;2023-05-19T05:00:20;11.33;;;5.40;;
7503;SDS011;3793;48.136;11.536;2023-05-19T05:02:51;11.23;;;5.40;;
7503;SDS011;3793;48.136;11.536;2023-05-19T05:05:26;11.07;;;5.87;;
7503;SDS011;3793;48.136;11.536;2023-05-19T05:07:56;9.23;;;5.73;;
7503;SDS011;3793;48.136;11.536;2023-05-19T05:10:26;10.50;;;5.43;;
7503;SDS011;3793;48.136;11.536;2023-05-19T05:12:53;10.37;;;5.53;;
7503;SDS011;3793;48.136;11.536;2023-05-19T05:15:29;10.93;;;5.33;;
7503;SDS011;3793;48.136;11.536;2023-05-19T05:18:03;8.13;;;5.67;;
7503;SDS011;3793;48.136;11.536;2023-05-19T05:20:34;14.50;;;6.17;;
7503;SDS011;3793;48.136;11.536;2023-05-19T05:23:07;11.60;;;6.07;;
7503;SDS011;3793;48.136;11.536;2023-05-19T05:25:40;14.87;;;5.67;;
7503;SDS011;3793;48.136;11.536;2023-05-19T05:28:18;12.17;;;5.70;;
7503;SDS011;3793;48.136;11.536;2023-05-19T05:30:45;10.23;;;5.60;;
7503;SDS011;3793;48.136;11.536;2023-05-19T05:33:17;9.37;;;5.33;;
7503;SDS011;3793;48.136;11.536;2023-05-19T05:35:48;11.13;;;5.33;;
7503;SDS011;3793;48.136;11.536;2023-05-19T05:38:22;8.70;;;5.47;;
7503;SDS011;3793;48.136;11.536;2023-05-19T05:40:54;11.97;;;5.90;;
7503;SDS011;3793;48.136;11.536;2023-05-19T05:43:22;12.57;;;5.67;;
7503;SDS011;3793;48.136;11.536;2023-05-19T05:46:00;11.97;;;5.20;;
7503;SDS011;3793;48.136;11.536;2023-05-19T05:48:43;11.57;;;5.90;;
7503;SDS011;3793;48.136;11.536;2023-05-19T05:51:14;10.13;;;4.90;;
7503;SDS011;3793;48.136;11.536;2023-05-19T05:53:41;12.43;;;5.47;;
7503;SDS011;3793;48.136;11.536;2023-05-19T05:56:12;7.93;;;5.17;;
7503;SDS011;3793;48.136;11.536;2023-05-19T05:58:45;8.63;;;5.20;;
7503;SDS011;3793;48.136;11.536;2023-05-19T06:01:15;11.50;;;5.57;;
7503;SDS011;3793;48.136;11.536;2023-05-19T06:03:43;12.37;;;5.87;;
7503;SDS011;3793;48.136;11.536;2023-05-19T06:06:13;12.23;;;5.67;;
7503;SDS011;3793;48.136;11.536;2023-05-19T06:08:44;11.93;;;4.73;;
7503;SDS011;3793;48.136;11.536;2023-05-19T06:11:21;9.73;;;4.93;;
7503;SDS011;3793;48.136;11.536;2023-05-19T06:13:49;9.83;;;5.07;;
7503;SDS011;3793;48.136;11.536;2023-05-19T06:16:16;13.33;;;5.50;;
7503;SDS011;3793;48.136;11.536;2023-05-19T06:18:42;6.60;;;4.80;;
7503;SDS011;3793;48.136;11.536;2023-05-19T06:21:09;13.40;;;4.90;;
7503;SDS011;3793;48.136;11.536;2023-05-19T06:23:38;12.13;;;5.37;;
7503;SDS011;3793;48.136;11.536;2023-05-19T06:26:05;10.20;;;5.27;;
7503;SDS011;3793;48.136;11.536;2023-05-19T06:28:33;10.43;;;5.10;;
7503;SDS011;3793;48.136;11.536;2023-05-19T06:31:00;10.30;;;4.97;;
7503;SDS011;3793;48.136;11.536;2023-05-19T06:33:27;11.57;;;5.10;;
7503;SDS011;3793;48.136;11.536;2023-05-19T06:35:56;11.37;;;4.80;;
7503;SDS011;3793;48.136;11.536;2023-05-19T06:38:23;8.43;;;4.70;;
7503;SDS011;3793;48.136;11.536;2023-05-19T06:40:50;11.47;;;4.70;;
7503;SDS011;3793;48.136;11.536;2023-05-19T06:43:17;6.97;;;4.87;;
7503;SDS011;3793;48.136;11.536;2023-05-19T06:45:45;11.03;;;5.00;;
7503;SDS011;3793;48.136;11.536;2023-05-19T06:48:12;13.47;;;5.03;;
7503;SDS011;3793;48.136;11.536;2023-05-19T06:50:39;10.10;;;4.53;;
7503;SDS011;3793;48.136;11.536;2023-05-19T06:53:09;8.90;;;4.60;;
7503;SDS011;3793;48.136;11.536;2023-05-19T06:55:36;9.80;;;5.17;;
7503;SDS011;3793;48.136;11.536;2023-05-19T06:58:04;13.03;;;4.90;;
7503;SDS011;3793;48.136;11.536;2023-05-19T07:00:30;7.27;;;4.60;;
7503;SDS011;3793;48.136;11.536;2023-05-19T07:02:59;9.97;;;4.60;;
7503;SDS011;3793;48.136;11.536;2023-05-19T07:05:26;8.33;;;4.00;;
7503;SDS011;3793;48.136;11.536;2023-05-19T07:07:52;10.83;;;4.87;;
7503;SDS011;3793;48.136;11.536;2023-05-19T07:10:20;7.53;;;4.50;;
7503;SDS011;3793;48.136;11.536;2023-05-19T07:12:47;7.97;;;4.03;;
7503;SDS011;3793;48.136;11.536;2023-05-19T07:15:14;8.60;;;4.33;;
7503;SDS011;3793;48.136;11.536;2023-05-19T07:17:41;11.80;;;4.37;;
7503;SDS011;3793;48.136;11.536;2023-05-19T07:20:09;6.17;;;4.03;;
7503;SDS011;3793;48.136;11.536;2023-05-19T07:22:37;7.83;;;3.97;;
7503;SDS011;3793;48.136;11.536;2023-05-19T07:25:04;10.43;;;4.63;;
7503;SDS011;3793;48.136;11.536;2023-05-19T07:27:31;7.67;;;4.23;;
7503;SDS011;3793;48.136;11.536;2023-05-19T07:29:58;6.17;;;4.13;;
7503;SDS011;3793;48.136;11.536;2023-05-19T07:32:25;9.00;;;4.23;;
7503;SDS011;3793;48.136;11.536;2023-05-19T07:34:52;6.53;;;4.17;;
7503;SDS011;3793;48.136;11.536;2023-05-19T07:37:20;5.93;;;4.13;;
7503;SDS011;3793;48.136;11.536;2023-05-19T07:39:47;8.07;;;4.13;;
7503;SDS011;3793;48.136;11.536;2023-05-19T07:42:14;6.27;;;3.87;;
7503;SDS011;3793;48.136;11.536;2023-05-19T07:44:41;7.03;;;4.33;;
7503;SDS011;3793;48.136;11.536;2023-05-19T07:47:07;12.13;;;4.80;;
7503;SDS011;3793;48.136;11.536;2023-05-19T07:49:34;7.83;;;4.33;;
7503;SDS011;3793;48.136;11.536;2023-05-19T07:52:01;9.27;;;4.27;;
7503;SDS011;3793;48.136;11.536;2023-05-19T07:54:29;7.77;;;4.00;;
7503;SDS011;3793;48.136;11.536;2023-05-19T07:56:57;8.17;;;4.17;;
7503;SDS011;3793;48.136;11.536;2023-05-19T07:59:30;7.97;;;4.20;;
7503;SDS011;3793;48.136;11.536;2023-05-19T08:01:57;7.13;;;4.03;;
7503;SDS011;3793;48.136;11.536;2023-05-19T08:04:24;7.03;;;3.73;;
7503;SDS011;3793;48.136;11.536;2023-05-19T08:06:51;12.30;;;4.13;;
7503;SDS011;3793;48.136;11.536;2023-05-19T08:09:19;14.27;;;4.03;;
7503;SDS011;3793;48.136;11.536;2023-05-19T08:11:47;8.97;;;3.80;;
7503;SDS011;3793;48.136;11.536;2023-05-19T08:14:14;10.10;;;4.03;;
7503;SDS011;3793;48.136;11.536;2023-05-19T08:16:41;9.33;;;3.73;;
7503;SDS011;3793;48.136;11.536;2023-05-19T08:19:10;8.73;;;4.00;;
7503;SDS011;3793;48.136;11.536;2023-05-19T08:21:37;11.57;;;5.23;;
7503;SDS011;3793;48.136;11.536;2023-05-19T08:24:04;24.57;;;4.87;;
7503;SDS011;3793;48.136;11.536;2023-05-19T08:26:31;11.80;;;4.37;;
7503;SDS011;3793;48.136;11.536;2023-05-19T08:29:00;9.87;;;5.17;;
7503;SDS011;3793;48.136;11.536;2023-05-19T08:31:27;9.37;;;5.17;;
7503;SDS011;3793;48.136;11.536;2023-05-19T08:33:54;6.60;;;5.23;;
7503;SDS011;3793;48.136;11.536;2023-05-19T08:36:20;11.47;;;5.80;;
7503;SDS011;3793;48.136;11.536;2023-05-19T08:38:48;6.40;;;5.40;;
7503;SDS011;3793;48.136;11.536;2023-05-19T08:41:15;8.03;;;5.50;;
7503;SDS011;3793;48.136;11.536;2023-05-19T08:43:42;9.03;;;6.03;;
7503;SDS011;3793;48.136;11.536;2023-05-19T08:46:11;12.43;;;6.07;;
7503;SDS011;3793;48.136;11.536;2023-05-19T08:48:41;7.83;;;5.87;;
7503;SDS011;3793;48.136;11.536;2023-05-19T08:51:10;10.17;;;6.27;;
7503;SDS011;3793;48.136;11.536;2023-05-19T08:53:44;7.43;;;5.80;;
7503;SDS011;3793;48.136;11.536;2023-05-19T08:56:15;11.10;;;5.90;;
7503;SDS011;3793;48.136;11.536;2023-05-19T08:58:43;8.33;;;5.97;;
7503;SDS011;3793;48.136;11.536;2023-05-19T09:01:13;8.80;;;5.60;;
7503;SDS011;3793;48.136;11.536;2023-05-19T09:03:41;9.03;;;5.53;;
7503;SDS011;3793;48.136;11.536;2023-05-19T09:06:09;8.43;;;4.67;;
7503;SDS011;3793;48.136;11.536;2023-05-19T09:08:37;11.33;;;5.70;;
7503;SDS011;3793;48.136;11.536;2023-05-19T09:11:04;8.13;;;5.40;;
7503;SDS011;3793;48.136;11.536;2023-05-19T09:13:31;12.50;;;5.30;;
7503;SDS011;3793;48.136;11.536;2023-05-19T09:15:58;6.57;;;4.90;;
7503;SDS011;3793;48.136;11.536;2023-05-19T09:18:27;9.53;;;5.60;;
7503;SDS011;3793;48.136;11.536;2023-05-19T09:20:55;10.70;;;5.33;;
7503;SDS011;3793;48.136;11.536;2023-05-19T09:23:25;8.60;;;5.57;;
7503;SDS011;3793;48.136;11.536;2023-05-19T09:25:54;8.37;;;5.77;;
7503;SDS011;3793;48.136;11.536;2023-05-19T09:28:30;9.63;;;5.97;;
7503;SDS011;3793;48.136;11.536;2023-05-19T09:31:02;9.67;;;6.60;;
7503;SDS011;3793;48.136;11.536;2023-05-19T09:33:33;8.70;;;5.87;;
7503;SDS011;3793;48.136;11.536;2023-05-19T09:36:04;11.60;;;6.23;;
7503;SDS011;3793;48.136;11.536;2023-05-19T09:38:33;8.97;;;5.13;;
7503;SDS011;3793;48.136;11.536;2023-05-19T09:41:01;8.97;;;5.73;;
7503;SDS011;3793;48.136;11.536;2023-05-19T09:43:29;8.63;;;5.63;;
7503;SDS011;3793;48.136;11.536;2023-05-19T09:46:03;9.17;;;6.17;;
7503;SDS011;3793;48.136;11.536;2023-05-19T09:48:36;11.27;;;6.20;;
7503;SDS011;3793;48.136;11.536;2023-05-19T09:51:03;10.57;;;5.60;;
7503;SDS011;3793;48.136;11.536;2023-05-19T09:53:41;8.57;;;5.77;;
7503;SDS011;3793;48.136;11.536;2023-05-19T09:56:25;7.53;;;5.53;;
7503;SDS011;3793;48.136;11.536;2023-05-19T09:58:57;9.27;;;5.97;;
7503;SDS011;3793;48.136;11.536;2023-05-19T10:01:24;8.60;;;5.63;;
7503;SDS011;3793;48.136;11.536;2023-05-19T10:03:52;11.33;;;5.63;;
7503;SDS011;3793;48.136;11.536;2023-05-19T10:06:19;7.60;;;5.10;;
7503;SDS011;3793;48.136;11.536;2023-05-19T10:08:47;6.53;;;4.90;;
7503;SDS011;3793;48.136;11.536;2023-05-19T10:11:14;7.00;;;5.33;;
7503;SDS011;3793;48.136;11.536;2023-05-19T10:13:45;6.33;;;5.10;;
7503;SDS011;3793;48.136;11.536;2023-05-19T10:16:22;7.37;;;5.57;;
7503;SDS011;3793;48.136;11.536;2023-05-19T10:18:53;9.20;;;6.07;;
7503;SDS011;3793;48.136;11.536;2023-05-19T10:21:20;6.73;;;5.60;;
7503;SDS011;3793;48.136;11.536;2023-05-19T10:23:51;8.73;;;6.90;;
7503;SDS011;3793;48.136;11.536;2023-05-19T10:26:17;8.50;;;6.23;;
7503;SDS011;3793;48.136;11.536;2023-05-19T10:28:45;8.93;;;6.33;;
7503;SDS011;3793;48.136;11.536;2023-05-19T10:31:14;8.93;;;6.83;;
7503;SDS011;3793;48.136;11.536;2023-05-19T10:33:47;8.10;;;6.17;;
7503;SDS011;3793;48.136;11.536;2023-05-19T10:36:32;9.73;;;6.90;;
7503;SDS011;3793;48.136;11.536;2023-05-19T10:39:05;12.60;;;7.00;;
7503;SDS011;3793;48.136;11.536;2023-05-19T10:41:36;11.33;;;7.07;;
7503;SDS011;3793;48.136;11.536;2023-05-19T10:44:08;8.87;;;6.43;;
7503;SDS011;3793;48.136;11.536;2023-05-19T10:46:38;9.73;;;6.90;;
7503;SDS011;3793;48.136;11.536;2023-05-19T10:49:10;8.53;;;6.40;;
7503;SDS011;3793;48.136;11.536;2023-05-19T10:51:45;7.97;;;7.17;;
7503;SDS011;3793;48.136;11.536;2023-05-19T10:54:12;9.73;;;7.10;;
7503;SDS011;3793;48.136;11.536;2023-05-19T10:56:41;8.90;;;6.73;;
7503;SDS011;3793;48.136;11.536;2023-05-19T11:01:55;12.90;;;7.73;;
7503;SDS011;3793;48.136;11.536;2023-05-19T11:04:37;9.63;;;7.20;;
7503;SDS011;3793;48.136;11.536;2023-05-19T11:07:05;9.50;;;7.23;;
7503;SDS011;3793;48.136;11.536;2023-05-19T11:09:37;10.67;;;7.57;;
7503;SDS011;3793;48.136;11.536;2023-05-19T11:12:07;11.57;;;7.90;;
7503;SDS011;3793;48.136;11.536;2023-05-19T11:14:39;10.73;;;7.33;;
7503;SDS011;3793;48.136;11.536;2023-05-19T11:17:12;9.50;;;7.30;;
7503;SDS011;3793;48.136;11.536;2023-05-19T11:19:50;9.47;;;7.03;;
7503;SDS011;3793;48.136;11.536;2023-05-19T11:22:21;10.23;;;7.50;;
7503;SDS011;3793;48.136;11.536;2023-05-19T11:24:48;10.63;;;6.90;;
7503;SDS011;3793;48.136;11.536;2023-05-19T11:27:20;9.93;;;7.03;;
7503;SDS011;3793;48.136;11.536;2023-05-19T11:29:52;11.67;;;7.20;;
7503;SDS011;3793;48.136;11.536;2023-05-19T11:32:25;8.47;;;7.07;;
7503;SDS011;3793;48.136;11.536;2023-05-19T11:34:59;8.90;;;7.03;;
7503;SDS011;3793;48.136;11.536;2023-05-19T11:37:26;11.37;;;7.30;;
7503;SDS011;3793;48.136;11.536;2023-05-19T11:39:54;10.83;;;7.13;;
7503;SDS011;3793;48.136;11.536;2023-05-19T11:42:20;8.77;;;6.90;;
7503;SDS011;3793;48.136;11.536;2023-05-19T11:44:47;9.63;;;7.10;;
7503;SDS011;3793;48.136;11.536;2023-05-19T11:47:14;8.63;;;6.90;;
7503;SDS011;3793;48.136;11.536;2023-05-19T11:49:43;9.03;;;7.00;;
7503;SDS011;3793;48.136;11.536;2023-05-19T11:52:12;10.13;;;7.50;;
7503;SDS011;3793;48.136;11.536;2023-05-19T11:54:38;8.03;;;7.13;;
7503;SDS011;3793;48.136;11.536;2023-05-19T11:57:07;8.33;;;7.37;;
7503;SDS011;3793;48.136;11.536;2023-05-19T11:59:40;12.83;;;7.77;;
7503;SDS011;3793;48.136;11.536;2023-05-19T12:02:14;11.97;;;7.40;;
7503;SDS011;3793;48.136;11.536;2023-05-19T12:04:42;12.80;;;7.87;;
7503;SDS011;3793;48.136;11.536;2023-05-19T12:07:12;10.60;;;7.67;;
7503;SDS011;3793;48.136;11.536;2023-05-19T12:09:41;11.30;;;7.43;;
7503;SDS011;3793;48.136;11.536;2023-05-19T12:12:10;9.07;;;7.87;;
7503;SDS011;3793;48.136;11.536;2023-05-19T12:14:38;10.93;;;7.57;;
7503;SDS011;3793;48.136;11.536;2023-05-19T12:17:09;9.63;;;7.70;;
7503;SDS011;3793;48.136;11.536;2023-05-19T12:19:39;8.53;;;7.60;;
7503;SDS011;3793;48.136;11.536;2023-05-19T12:22:09;9.53;;;8.10;;
7503;SDS011;3793;48.136;11.536;2023-05-19T12:24:38;10.57;;;8.30;;
7503;SDS011;3793;48.136;11.536;2023-05-19T12:27:08;11.47;;;8.77;;
7503;SDS011;3793;48.136;11.536;2023-05-19T12:29:36;8.67;;;7.60;;
7503;SDS011;3793;48.136;11.536;2023-05-19T12:32:03;12.83;;;8.57;;
7503;SDS011;3793;48.136;11.536;2023-05-19T12:34:33;10.00;;;7.90;;
7503;SDS011;3793;48.136;11.536;2023-05-19T12:37:01;12.63;;;8.53;;
7503;SDS011;3793;48.136;11.536;2023-05-19T12:39:28;10.90;;;8.57;;
7503;SDS011;3793;48.136;11.536;2023-05-19T12:42:01;13.87;;;8.23;;
7503;SDS011;3793;48.136;11.536;2023-05-19T12:44:28;10.53;;;8.10;;
7503;SDS011;3793;48.136;11.536;2023-05-19T12:46:56;12.23;;;8.63;;
7503;SDS011;3793;48.136;11.536;2023-05-19T12:49:23;11.80;;;7.93;;
7503;SDS011;3793;48.136;11.536;2023-05-19T12:51:50;11.63;;;8.63;;
7503;SDS011;3793;48.136;11.536;2023-05-19T12:54:18;15.93;;;8.93;;
7503;SDS011;3793;48.136;11.536;2023-05-19T12:56:48;12.03;;;8.73;;
7503;SDS011;3793;48.136;11.536;2023-05-19T12:59:21;11.07;;;7.90;;
7503;SDS011;3793;48.136;11.536;2023-05-19T13:01:55;14.83;;;9.10;;
7503;SDS011;3793;48.136;11.536;2023-05-19T13:04:22;11.07;;;7.40;;
7503;SDS011;3793;48.136;11.536;2023-05-19T13:06:49;14.43;;;9.13;;
7503;SDS011;3793;48.136;11.536;2023-05-19T13:09:17;13.07;;;8.87;;
7503;SDS011;3793;48.136;11.536;2023-05-19T13:11:45;14.57;;;8.23;;
7503;SDS011;3793;48.136;11.536;2023-05-19T13:14:15;14.40;;;8.90;;
7503;SDS011;3793;48.136;11.536;2023-05-19T13:16:44;10.10;;;8.60;;
7503;SDS011;3793;48.136;11.536;2023-05-19T13:19:11;11.23;;;8.63;;
7503;SDS011;3793;48.136;11.536;2023-05-19T13:21:39;12.17;;;7.83;;
7503;SDS011;3793;48.136;11.536;2023-05-19T13:24:06;9.73;;;7.30;;
7503;SDS011;3793;48.136;11.536;2023-05-19T13:26:32;13.40;;;7.60;;
7503;SDS011;3793;48.136;11.536;2023-05-19T13:29:00;9.90;;;8.00;;
7503;SDS011;3793;48.136;11.536;2023-05-19T13:31:28;10.50;;;8.13;;
7503;SDS011;3793;48.136;11.536;2023-05-19T13:33:59;11.37;;;7.60;;
7503;SDS011;3793;48.136;11.536;2023-05-19T13:36:26;9.90;;;7.63;;
7503;SDS011;3793;48.136;11.536;2023-05-19T13:38:53;8.17;;;7.27;;
7503;SDS011;3793;48.136;11.536;2023-05-19T13:41:23;8.87;;;6.83;;
7503;SDS011;3793;48.136;11.536;2023-05-19T13:43:51;12.23;;;7.53;;
7503;SDS011;3793;48.136;11.536;2023-05-19T13:46:17;9.13;;;7.70;;
7503;SDS011;3793;48.136;11.536;2023-05-19T13:48:44;10.23;;;7.10;;
7503;SDS011;3793;48.136;11.536;2023-05-19T13:51:13;9.45;;;7.57;;
7503;SDS011;3793;48.136;11.536;2023-05-19T13:53:40;8.10;;;7.07;;
7503;SDS011;3793;48.136;11.536;2023-05-19T13:56:09;7.47;;;6.55;;
7503;SDS011;3793;48.136;11.536;2023-05-19T13:58:42;8.18;;;6.22;;
7503;SDS011;3793;48.136;11.536;2023-05-19T14:01:08;8.20;;;7.20;;
7503;SDS011;3793;48.136;11.536;2023-05-19T14:03:35;7.30;;;6.45;;
7503;SDS011;3793;48.136;11.536;2023-05-19T14:06:02;9.13;;;6.22;;
7503;SDS011;3793;48.136;11.536;2023-05-19T14:08:32;9.57;;;6.88;;
7503;SDS011;3793;48.136;11.536;2023-05-19T14:10:58;8.13;;;6.35;;
7503;SDS011;3793;48.136;11.536;2023-05-19T14:13:25;11.02;;;6.72;;
7503;SDS011;3793;48.136;11.536;2023-05-19T14:15:52;9.98;;;6.75;;
7503;SDS011;3793;48.136;11.536;2023-05-19T14:18:19;9.02;;;7.00;;
7503;SDS011;3793;48.136;11.536;2023-05-19T14:20:46;8.27;;;6.82;;
7503;SDS011;3793;48.136;11.536;2023-05-19T14:23:12;9.50;;;7.47;;
7503;SDS011;3793;48.136;11.536;2023-05-19T14:25:42;8.23;;;6.93;;
7503;SDS011;3793;48.136;11.536;2023-05-19T14:28:09;9.25;;;6.88;;
7503;SDS011;3793;48.136;11.536;2023-05-19T14:30:36;9.57;;;7.30;;
7503;SDS011;3793;48.136;11.536;2023-05-19T14:33:03;9.00;;;6.88;;
7503;SDS011;3793;48.136;11.536;2023-05-19T14:35:30;9.00;;;7.25;;
7503;SDS011;3793;48.136;11.536;2023-05-19T14:37:56;8.13;;;7.00;;
7503;SDS011;3793;48.136;11.536;2023-05-19T14:40:23;9.13;;;6.60;;
7503;SDS011;3793;48.136;11.536;2023-05-19T14:42:51;6.93;;;6.22;;
7503;SDS011;3793;48.136;11.536;2023-05-19T14:45:18;9.65;;;7.60;;
7503;SDS011;3793;48.136;11.536;2023-05-19T14:47:45;7.17;;;6.33;;
7503;SDS011;3793;48.136;11.536;2023-05-19T14:50:12;9.73;;;7.90;;
7503;SDS011;3793;48.136;11.536;2023-05-19T14:52:38;8.40;;;7.50;;
7503;SDS011;3793;48.136;11.536;2023-05-19T14:55:05;9.20;;;7.73;;
7503;SDS011;3793;48.136;11.536;2023-05-19T14:57:33;9.53;;;7.23;;
7503;SDS011;3793;48.136;11.536;2023-05-19T15:00:04;10.50;;;6.93;;
7503;SDS011;3793;48.136;11.536;2023-05-19T15:02:33;8.60;;;7.37;;
7503;SDS011;3793;48.136;11.536;2023-05-19T15:04:59;9.83;;;7.43;;
7503;SDS011;3793;48.136;11.536;2023-05-19T15:07:26;9.37;;;7.90;;
7503;SDS011;3793;48.136;11.536;2023-05-19T15:09:53;11.40;;;7.70;;
7503;SDS011;3793;48.136;11.536;2023-05-19T15:12:20;8.23;;;7.20;;
7503;SDS011;3793;48.136;11.536;2023-05-19T15:14:47;10.97;;;7.80;;
7503;SDS011;3793;48.136;11.536;2023-05-19T15:17:15;10.57;;;7.00;;
7503;SDS011;3793;48.136;11.536;2023-05-19T15:19:42;10.20;;;6.93;;
7503;SDS011;3793;48.136;11.536;2023-05-19T15:22:09;7.90;;;6.87;;
7503;SDS011;3793;48.136;11.536;2023-05-19T15:24:36;8.70;;;6.70;;
7503;SDS011;3793;48.136;11.536;2023-05-19T15:27:02;9.97;;;7.50;;
7503;SDS011;3793;48.136;11.536;2023-05-19T15:29:29;10.03;;;7.10;;
7503;SDS011;3793;48.136;11.536;2023-05-19T15:31:56;9.90;;;7.13;;
7503;SDS011;3793;48.136;11.536;2023-05-19T15:34:24;8.45;;;6.88;;
7503;SDS011;3793;48.136;11.536;2023-05-19T15:36:51;11.48;;;7.40;;
7503;SDS011;3793;48.136;11.536;2023-05-19T15:39:18;7.70;;;6.88;;
7503;SDS011;3793;48.136;11.536;2023-05-19T15:41:45;9.85;;;7.22;;
7503;SDS011;3793;48.136;11.536;2023-05-19T15:44:12;8.95;;;7.15;;
7503;SDS011;3793;48.136;11.536;2023-05-19T15:46:39;7.68;;;6.38;;
7503;SDS011;3793;48.136;11.536;2023-05-19T15:49:06;9.30;;;6.75;;
7503;SDS011;3793;48.136;11.536;2023-05-19T15:51:36;7.47;;;6.32;;
7503;SDS011;3793;48.136;11.536;2023-05-19T15:54:03;8.35;;;6.88;;
7503;SDS011;3793;48.136;11.536;2023-05-19T15:56:30;7.40;;;5.68;;
7503;SDS011;3793;48.136;11.536;2023-05-19T15:58:57;7.68;;;5.65;;
7503;SDS011;3793;48.136;11.536;2023-05-19T16:01:24;6.10;;;5.50;;
7503;SDS011;3793;48.136;11.536;2023-05-19T16:03:51;6.53;;;5.90;;
7503;SDS011;3793;48.136;11.536;2023-05-19T16:06:18;7.22;;;5.47;;
7503;SDS011;3793;48.136;11.536;2023-05-19T16:08:47;6.05;;;5.45;;
7503;SDS011;3793;48.136;11.536;2023-05-19T16:11:13;5.80;;;5.20;;
7503;SDS011;3793;48.136;11.536;2023-05-19T16:13:40;6.15;;;5.55;;
7503;SDS011;3793;48.136;11.536;2023-05-19T16:16:07;7.65;;;6.03;;
7503;SDS011;3793;48.136;11.536;2023-05-19T16:18:34;6.28;;;5.68;;
7503;SDS011;3793;48.136;11.536;2023-05-19T16:21:01;6.00;;;5.40;;